»·PEaware :: N5491J KSNA-KSAN

N5491J :: KSNA-KSAN

FLIGHT INFORMATION

Flight Status: Arrived
Operator: Privately registered:
United States
More flights under this callsign
Pilot: Aero Safety Training (369)
Aircraft: CESSNA 172 SKYHAWK
(C172)
More flights by this aircraft type
Origin: KSNA John Wayne-Orange Co
United States
Destination: KSAN San Diego Intl-Lindbergh
United States
More flights between these airports :: More routes between these airports
Route: +V23 MZB
File this flight plan on PilotEdge
Remarks: imc conditions
Altitude:
(Current/Filed)
5,000ft
Speed:
(Current/Filed)
105kts
Departed: 09-Dec-14 10:16 AM
Arrived: 09-Dec-14 11:12 AM
Distance/Time
Traveled:
66nm/0:55
Distance/Time
To Go:
Arrived

Flight Plot

Page will automatically refresh every two minutes.


Map Options




Map Legend


Flown Route
Filed Route
Departure Airport
Arrival Airport
Navaid (VOR, NDB)
Fix

Horizontal Profiles

Position Reports

Time Latitude Longitude Heading Altitude Ground
Speed
09-Dec-14 09:47 33.672267 -117.866576 282 59ft 0kts
09-Dec-14 09:48 33.672267 -117.866576 282 59ft 0kts
09-Dec-14 09:49 33.672267 -117.866576 282 59ft 0kts
09-Dec-14 09:50 33.672281 -117.866552 335 59ft 2kts
09-Dec-14 09:51 33.672498 -117.866653 326 59ft 0kts
09-Dec-14 09:52 33.672499 -117.866654 326 59ft 0kts
09-Dec-14 09:53 33.672499 -117.866655 326 59ft 0kts
09-Dec-14 09:54 33.672500 -117.866655 326 59ft 0kts
09-Dec-14 09:55 33.672501 -117.866656 326 59ft 0kts
09-Dec-14 09:56 33.672502 -117.866657 326 59ft 0kts
09-Dec-14 09:57 33.672503 -117.866657 327 59ft 0kts
09-Dec-14 09:58 33.672504 -117.866658 327 59ft 0kts
09-Dec-14 09:59 33.672505 -117.866659 327 59ft 0kts
09-Dec-14 10:00 33.672506 -117.866660 327 59ft 0kts
09-Dec-14 10:01 33.672507 -117.866660 327 59ft 0kts
09-Dec-14 10:02 33.672508 -117.866661 327 59ft 0kts
09-Dec-14 10:03 33.672509 -117.866662 327 59ft 0kts
09-Dec-14 10:04 33.672537 -117.866685 322 59ft 0kts
09-Dec-14 10:05 33.672538 -117.866686 322 59ft 0kts
09-Dec-14 10:06 33.673029 -117.867036 21 59ft 5kts
09-Dec-14 10:07 33.677618 -117.864914 26 59ft 26kts
09-Dec-14 10:08 33.679668 -117.863833 334 59ft 0kts
09-Dec-14 10:09 33.679670 -117.863835 334 59ft 0kts
09-Dec-14 10:10 33.679673 -117.863836 334 59ft 0kts
09-Dec-14 10:11 33.679675 -117.863837 334 59ft 0kts
09-Dec-14 10:12 33.679388 -117.864636 207 59ft 26kts
09-Dec-14 10:13 33.663251 -117.876358 213 727ft 82kts
09-Dec-14 10:14 33.641722 -117.880332 184 1844ft 78kts
09-Dec-14 10:15 33.624815 -117.867134 130 2790ft 76kts
09-Dec-14 10:16 33.610770 -117.847496 131 3615ft 77kts
09-Dec-14 10:17 33.595808 -117.828612 137 4347ft 80kts
09-Dec-14 10:18 33.578495 -117.810325 137 4896ft 97kts
09-Dec-14 10:19 33.556814 -117.785683 137 4904ft 109kts
09-Dec-14 10:20 33.534451 -117.760676 136 4885ft 109kts
09-Dec-14 10:21 33.512324 -117.735057 135 4827ft 112kts
09-Dec-14 10:22 33.490318 -117.709191 135 4823ft 109kts
09-Dec-14 10:23 33.468574 -117.683730 135 4824ft 108kts
09-Dec-14 10:24 33.446924 -117.658366 135 4824ft 108kts
09-Dec-14 10:25 33.425302 -117.633032 135 4824ft 108kts
09-Dec-14 10:26 33.403687 -117.607725 135 4824ft 108kts
09-Dec-14 10:27 33.382030 -117.582386 135 4824ft 108kts
09-Dec-14 10:28 33.360375 -117.557069 135 4824ft 108kts
09-Dec-14 10:29 33.338795 -117.531858 135 4824ft 108kts
09-Dec-14 10:30 33.317112 -117.506543 135 4824ft 108kts
09-Dec-14 10:31 33.295440 -117.481264 135 4824ft 108kts
09-Dec-14 10:32 33.273768 -117.456001 135 4824ft 108kts
09-Dec-14 10:33 33.252160 -117.430831 135 4824ft 108kts
09-Dec-14 10:34 33.227279 -117.411784 161 4828ft 108kts
09-Dec-14 10:35 33.198630 -117.399971 160 4824ft 108kts
09-Dec-14 10:36 33.170077 -117.387950 160 4824ft 108kts
09-Dec-14 10:37 33.141480 -117.375907 160 4824ft 108kts
09-Dec-14 10:38 33.112966 -117.363907 160 4824ft 108kts
09-Dec-14 10:39 33.084430 -117.351906 160 4824ft 108kts
09-Dec-14 10:40 33.055880 -117.339907 160 4824ft 108kts
09-Dec-14 10:41 33.027191 -117.327882 160 4824ft 108kts
09-Dec-14 10:42 32.998634 -117.315914 160 4824ft 108kts
09-Dec-14 10:43 32.970131 -117.303960 160 4824ft 108kts
09-Dec-14 10:44 32.946279 -117.293961 160 4824ft 108kts
09-Dec-14 10:45 32.917590 -117.281942 160 4824ft 108kts
09-Dec-14 10:46 32.889092 -117.270012 160 4824ft 108kts
09-Dec-14 10:47 32.860504 -117.258052 160 4824ft 108kts
09-Dec-14 10:48 32.844084 -117.232069 104 4808ft 110kts
09-Dec-14 10:49 32.836456 -117.196942 104 4799ft 110kts
09-Dec-14 10:50 32.828845 -117.162234 105 4827ft 107kts
09-Dec-14 10:51 32.820495 -117.128085 106 4860ft 105kts
09-Dec-14 10:52 32.812086 -117.095435 105 4580ft 100kts
09-Dec-14 10:53 32.804327 -117.063429 105 3884ft 99kts
09-Dec-14 10:54 32.796652 -117.030751 104 3846ft 106kts
09-Dec-14 10:55 32.788695 -116.996178 106 3842ft 108kts
09-Dec-14 10:56 32.772166 -116.966481 134 3846ft 110kts
09-Dec-14 10:57 32.750934 -116.939823 133 3827ft 115kts
09-Dec-14 10:58 32.729728 -116.912591 131 3825ft 111kts
09-Dec-14 10:59 32.703863 -116.909353 211 3802ft 108kts
09-Dec-14 11:00 32.686951 -116.936955 250 3665ft 105kts
09-Dec-14 11:01 32.681077 -116.970716 280 3632ft 107kts
09-Dec-14 11:02 32.688069 -117.003533 284 3141ft 100kts
09-Dec-14 11:03 32.696769 -117.036620 284 2380ft 97kts
09-Dec-14 11:04 32.703512 -117.066308 286 2326ft 91kts
09-Dec-14 11:05 32.710613 -117.095305 282 2042ft 93kts
09-Dec-14 11:06 32.717878 -117.125008 286 1469ft 94kts
09-Dec-14 11:07 32.725157 -117.155085 287 853ft 92kts
09-Dec-14 11:08 32.731613 -117.181527 285 63ft 63kts
09-Dec-14 11:09 32.733580 -117.186877 13 18ft 0kts
09-Dec-14 11:10 32.733867 -117.186798 13 18ft 7kts

Navigation Log

Ident Type
1. KSNA Airport
2. MZB Navaid
3. KSAN Airport